AXI750 EGLF-LEPA
Flight info
| Callsign | AXI750 |
|---|---|
| Flight time | 1h 44m |
| Altitude | 45000 |
| Route | GWC2L GWC UN859 SOPIL DCT BALAN DCT EVPOK DCT NARAK DCT GAI DCT LOMRA DCT ROCAN DCT IBRAP N13 LORES LORE1P |
| Aircraft | C750/M-SBDE3FGHRWXY/S |
Departure
| Time | 2026-05-05 08:39 |
|---|---|
| Airport | Farnborough Airport (EGLF) |
Arrival
| Time | 2026-05-05 10:24 |
|---|---|
| Airport | Palma de Mallorca Airport (LEPA) |
| Time | Latitude | Longitude | Altitude | Speed | Heading |
|---|---|---|---|---|---|
| 2026-05-05 08:30 | 51.27785 | -0.78148 | 221 ft | 0 kts | 305° |
| 2026-05-05 08:34 | 51.27774 | -0.78121 | 221 ft | 4 kts | 290° |
| 2026-05-05 08:34 | 51.27772 | -0.78083 | 221 ft | 4 kts | 237° |
| 2026-05-05 08:34 | 51.27781 | -0.78067 | 221 ft | 1 kts | 216° |
| 2026-05-05 08:34 | 51.27782 | -0.78066 | 221 ft | 0 kts | 216° |
| 2026-05-05 08:36 | 51.27782 | -0.78067 | 221 ft | 2 kts | 216° |
| 2026-05-05 08:36 | 51.27724 | -0.78133 | 221 ft | 15 kts | 215° |
| 2026-05-05 08:36 | 51.27656 | -0.78224 | 222 ft | 9 kts | 246° |
| 2026-05-05 08:37 | 51.27614 | -0.78302 | 224 ft | 15 kts | 219° |
| 2026-05-05 08:37 | 51.27515 | -0.78439 | 224 ft | 19 kts | 221° |
| 2026-05-05 08:37 | 51.27422 | -0.78572 | 224 ft | 18 kts | 222° |
| 2026-05-05 08:37 | 51.27338 | -0.78684 | 228 ft | 13 kts | 220° |
| 2026-05-05 08:38 | 51.27274 | -0.78702 | 229 ft | 10 kts | 155° |
| 2026-05-05 08:38 | 51.27244 | -0.78646 | 229 ft | 5 kts | 84° |
| 2026-05-05 08:38 | 51.27252 | -0.78612 | 229 ft | 0 kts | 59° |
| 2026-05-05 08:39 | 51.27326 | -0.78398 | 225 ft | 73 kts | 62° |
| 2026-05-05 08:39 | 51.27700 | -0.77272 | 382 ft | 131 kts | 59° |
| 2026-05-05 08:39 | 51.28145 | -0.75931 | 1031 ft | 142 kts | 58° |
| 2026-05-05 08:39 | 51.28640 | -0.74519 | 1699 ft | 151 kts | 58° |
| 2026-05-05 08:40 | 51.29163 | -0.72948 | 2133 ft | 170 kts | 59° |
| 2026-05-05 08:40 | 51.29758 | -0.71138 | 2555 ft | 197 kts | 59° |
| 2026-05-05 08:40 | 51.30121 | -0.68975 | 3334 ft | 209 kts | 88° |
| 2026-05-05 08:40 | 51.29714 | -0.66731 | 4278 ft | 219 kts | 118° |
| 2026-05-05 08:41 | 51.28561 | -0.65085 | 5206 ft | 227 kts | 147° |
| 2026-05-05 08:41 | 51.27154 | -0.63934 | 6201 ft | 228 kts | 155° |
| 2026-05-05 08:41 | 51.25572 | -0.63590 | 6975 ft | 237 kts | 191° |
| 2026-05-05 08:41 | 51.24109 | -0.64745 | 7905 ft | 238 kts | 224° |
| 2026-05-05 08:42 | 51.23189 | -0.66907 | 8962 ft | 236 kts | 243° |
| 2026-05-05 08:42 | 51.22429 | -0.69255 | 9899 ft | 241 kts | 244° |
| 2026-05-05 08:42 | 51.21651 | -0.71658 | 10665 ft | 246 kts | 243° |
| 2026-05-05 08:42 | 51.20810 | -0.74049 | 11461 ft | 249 kts | 237° |
| 2026-05-05 08:43 | 51.19794 | -0.76322 | 12190 ft | 257 kts | 236° |
| 2026-05-05 08:43 | 51.18739 | -0.78780 | 12495 ft | 282 kts | 237° |
| 2026-05-05 08:43 | 51.17577 | -0.81488 | 12688 ft | 309 kts | 236° |
| 2026-05-05 08:43 | 51.16292 | -0.84427 | 12801 ft | 337 kts | 235° |
| 2026-05-05 08:44 | 51.14898 | -0.87602 | 12843 ft | 362 kts | 235° |
| 2026-05-05 08:44 | 51.13445 | -0.90927 | 13446 ft | 367 kts | 236° |
| 2026-05-05 08:44 | 51.12132 | -0.94426 | 14001 ft | 370 kts | 244° |
| 2026-05-05 08:44 | 51.10569 | -0.97684 | 14494 ft | 375 kts | 220° |
| 2026-05-05 08:45 | 51.08258 | -0.99544 | 15174 ft | 375 kts | 195° |
| 2026-05-05 08:45 | 51.05668 | -0.99820 | 15813 ft | 375 kts | 174° |
| 2026-05-05 08:45 | 51.03091 | -0.99159 | 16502 ft | 375 kts | 168° |
| 2026-05-05 08:45 | 51.00523 | -0.98354 | 17168 ft | 378 kts | 168° |
| 2026-05-05 08:46 | 50.97953 | -0.97418 | 17856 ft | 379 kts | 166° |
| 2026-05-05 08:46 | 50.95502 | -0.95846 | 18384 ft | 384 kts | 149° |
| 2026-05-05 08:46 | 50.93423 | -0.93187 | 19013 ft | 385 kts | 136° |
| 2026-05-05 08:46 | 50.91517 | -0.90195 | 19675 ft | 387 kts | 135° |
| 2026-05-05 08:47 | 50.89677 | -0.87154 | 20344 ft | 389 kts | 132° |
| 2026-05-05 08:47 | 50.88186 | -0.83462 | 20838 ft | 396 kts | 119° |
| 2026-05-05 08:47 | 50.86907 | -0.79661 | 21514 ft | 397 kts | 120° |
| 2026-05-05 08:47 | 50.85270 | -0.76145 | 22043 ft | 400 kts | 134° |
| 2026-05-05 08:48 | 50.83169 | -0.73269 | 22736 ft | 399 kts | 145° |
| 2026-05-05 08:48 | 50.80829 | -0.70879 | 23322 ft | 402 kts | 148° |
| 2026-05-05 08:48 | 50.78457 | -0.68490 | 23838 ft | 406 kts | 148° |
| 2026-05-05 08:48 | 50.76077 | -0.66058 | 24334 ft | 409 kts | 148° |
| 2026-05-05 08:49 | 50.73680 | -0.63607 | 24817 ft | 412 kts | 148° |
| 2026-05-05 08:49 | 50.71257 | -0.61155 | 25299 ft | 415 kts | 148° |
| 2026-05-05 08:49 | 50.68817 | -0.58690 | 25795 ft | 418 kts | 148° |
| 2026-05-05 08:49 | 50.66365 | -0.56206 | 26320 ft | 420 kts | 149° |
| 2026-05-05 08:50 | 50.63900 | -0.53710 | 26851 ft | 422 kts | 148° |
| 2026-05-05 08:50 | 50.61423 | -0.51210 | 27408 ft | 424 kts | 149° |
| 2026-05-05 08:50 | 50.58934 | -0.48703 | 27940 ft | 426 kts | 149° |
| 2026-05-05 08:50 | 50.56432 | -0.46184 | 28477 ft | 428 kts | 149° |
| 2026-05-05 08:51 | 50.53916 | -0.43652 | 29010 ft | 430 kts | 149° |
| 2026-05-05 08:51 | 50.51389 | -0.41114 | 29529 ft | 432 kts | 149° |
| 2026-05-05 08:51 | 50.48846 | -0.38564 | 30021 ft | 435 kts | 149° |
| 2026-05-05 08:51 | 50.46288 | -0.36002 | 30431 ft | 438 kts | 149° |
| 2026-05-05 08:52 | 50.43709 | -0.33422 | 30773 ft | 442 kts | 149° |
| 2026-05-05 08:52 | 50.41109 | -0.30824 | 31246 ft | 442 kts | 149° |
| 2026-05-05 08:52 | 50.38523 | -0.28240 | 31874 ft | 440 kts | 149° |
| 2026-05-05 08:52 | 50.35940 | -0.25667 | 32377 ft | 441 kts | 149° |
| 2026-05-05 08:53 | 50.33350 | -0.23091 | 32890 ft | 441 kts | 150° |
| 2026-05-05 08:53 | 50.30757 | -0.20514 | 33409 ft | 442 kts | 150° |
| 2026-05-05 08:53 | 50.28162 | -0.17938 | 33936 ft | 442 kts | 150° |
| 2026-05-05 08:53 | 50.25562 | -0.15360 | 34368 ft | 443 kts | 150° |
| 2026-05-05 08:54 | 50.22953 | -0.12778 | 34789 ft | 444 kts | 150° |
| 2026-05-05 08:54 | 50.20339 | -0.10192 | 35206 ft | 445 kts | 150° |
| 2026-05-05 08:54 | 50.17720 | -0.07606 | 35669 ft | 445 kts | 150° |
| 2026-05-05 08:54 | 50.15104 | -0.05025 | 36205 ft | 444 kts | 150° |
| 2026-05-05 08:55 | 50.12491 | -0.02454 | 36663 ft | 445 kts | 150° |
| 2026-05-05 08:55 | 50.09763 | -0.00188 | 37072 ft | 444 kts | 159° |
| 2026-05-05 08:55 | 50.06840 | 0.01318 | 37522 ft | 443 kts | 167° |
| 2026-05-05 08:55 | 50.03847 | 0.02437 | 37996 ft | 443 kts | 168° |
| 2026-05-05 08:56 | 50.00849 | 0.03571 | 38472 ft | 444 kts | 167° |
| 2026-05-05 08:56 | 49.97851 | 0.04780 | 38818 ft | 446 kts | 167° |
| 2026-05-05 08:56 | 49.94839 | 0.05997 | 39191 ft | 446 kts | 167° |
| 2026-05-05 08:56 | 49.91840 | 0.07163 | 39728 ft | 443 kts | 167° |
| 2026-05-05 08:57 | 49.88843 | 0.08319 | 40097 ft | 444 kts | 168° |
| 2026-05-05 08:57 | 49.85861 | 0.09490 | 40623 ft | 442 kts | 167° |
| 2026-05-05 08:57 | 49.82869 | 0.10672 | 40886 ft | 446 kts | 167° |
| 2026-05-05 08:57 | 49.79863 | 0.11846 | 41290 ft | 445 kts | 167° |
| 2026-05-05 08:58 | 49.76847 | 0.13017 | 41628 ft | 447 kts | 167° |
| 2026-05-05 08:58 | 49.73828 | 0.14192 | 41986 ft | 448 kts | 167° |
| 2026-05-05 08:58 | 49.70811 | 0.15370 | 42464 ft | 447 kts | 167° |
| 2026-05-05 08:58 | 49.67792 | 0.16545 | 42824 ft | 447 kts | 167° |
| 2026-05-05 08:59 | 49.64785 | 0.17740 | 43328 ft | 445 kts | 167° |
| 2026-05-05 08:59 | 49.61784 | 0.18974 | 43557 ft | 449 kts | 166° |
| 2026-05-05 08:59 | 49.58758 | 0.20207 | 43904 ft | 450 kts | 167° |
| 2026-05-05 08:59 | 49.55723 | 0.21418 | 44155 ft | 453 kts | 167° |
| 2026-05-05 09:00 | 49.52668 | 0.22635 | 44508 ft | 453 kts | 167° |
| 2026-05-05 09:00 | 49.49636 | 0.23856 | 44911 ft | 449 kts | 166° |
| 2026-05-05 09:00 | 49.46626 | 0.25068 | 44906 ft | 457 kts | 167° |
| 2026-05-05 09:01 | 49.40374 | 0.27561 | 44921 ft | 471 kts | 167° |
| 2026-05-05 09:01 | 49.33935 | 0.30133 | 44922 ft | 485 kts | 166° |
| 2026-05-05 09:02 | 49.27356 | 0.32794 | 44921 ft | 493 kts | 166° |
| 2026-05-05 09:02 | 49.20713 | 0.35673 | 44900 ft | 499 kts | 166° |
| 2026-05-05 09:03 | 49.13960 | 0.38464 | 44896 ft | 506 kts | 166° |
| 2026-05-05 09:03 | 49.07165 | 0.41340 | 44890 ft | 508 kts | 166° |
| 2026-05-05 09:04 | 49.00346 | 0.44174 | 44878 ft | 510 kts | 166° |
| 2026-05-05 09:04 | 48.94672 | 0.46547 | 44880 ft | 508 kts | 166° |
| 2026-05-05 09:05 | 48.87849 | 0.49383 | 44886 ft | 508 kts | 166° |
| 2026-05-05 09:05 | 48.81026 | 0.52211 | 44880 ft | 507 kts | 166° |
| 2026-05-05 09:06 | 48.74199 | 0.54971 | 44867 ft | 508 kts | 167° |
| 2026-05-05 09:06 | 48.67339 | 0.57601 | 44867 ft | 508 kts | 166° |
| 2026-05-05 09:07 | 48.60509 | 0.60312 | 44872 ft | 508 kts | 167° |
| 2026-05-05 09:07 | 48.53662 | 0.62955 | 44865 ft | 508 kts | 167° |
| 2026-05-05 09:08 | 48.46829 | 0.65703 | 44854 ft | 508 kts | 166° |
| 2026-05-05 09:08 | 48.40006 | 0.68510 | 44850 ft | 509 kts | 166° |
| 2026-05-05 09:09 | 48.33164 | 0.71256 | 44850 ft | 510 kts | 166° |
| 2026-05-05 09:09 | 48.26324 | 0.74039 | 44847 ft | 509 kts | 166° |
| 2026-05-05 09:10 | 48.19474 | 0.76746 | 44839 ft | 511 kts | 167° |
| 2026-05-05 09:10 | 48.12596 | 0.79442 | 44830 ft | 511 kts | 166° |
| 2026-05-05 09:11 | 48.05772 | 0.82125 | 44830 ft | 510 kts | 166° |
| 2026-05-05 09:11 | 47.98898 | 0.84807 | 44833 ft | 510 kts | 166° |
| 2026-05-05 09:12 | 47.92034 | 0.87489 | 44834 ft | 510 kts | 167° |
| 2026-05-05 09:12 | 47.85169 | 0.90156 | 44830 ft | 510 kts | 167° |
| 2026-05-05 09:13 | 47.78309 | 0.92820 | 44833 ft | 510 kts | 167° |
| 2026-05-05 09:13 | 47.71443 | 0.95473 | 44845 ft | 510 kts | 167° |
| 2026-05-05 09:14 | 47.64582 | 0.98121 | 44837 ft | 509 kts | 167° |
| 2026-05-05 09:14 | 47.57717 | 1.00762 | 44834 ft | 510 kts | 167° |
| 2026-05-05 09:15 | 47.50844 | 1.03400 | 44838 ft | 510 kts | 167° |
| 2026-05-05 09:15 | 47.43952 | 1.05932 | 44826 ft | 510 kts | 171° |
| 2026-05-05 09:16 | 47.36912 | 1.06404 | 44853 ft | 507 kts | 183° |
| 2026-05-05 09:16 | 47.29866 | 1.06060 | 44858 ft | 507 kts | 181° |
| 2026-05-05 09:17 | 47.22814 | 1.06022 | 44860 ft | 506 kts | 182° |
| 2026-05-05 09:17 | 47.15769 | 1.05771 | 44856 ft | 506 kts | 182° |
| 2026-05-05 09:18 | 47.08723 | 1.05662 | 44864 ft | 507 kts | 182° |
| 2026-05-05 09:18 | 47.01727 | 1.05463 | 44857 ft | 506 kts | 182° |
| 2026-05-05 09:19 | 46.94683 | 1.05163 | 44860 ft | 507 kts | 183° |
| 2026-05-05 09:19 | 46.87632 | 1.04853 | 44858 ft | 507 kts | 182° |
| 2026-05-05 09:20 | 46.80579 | 1.04562 | 44862 ft | 507 kts | 183° |
| 2026-05-05 09:20 | 46.73526 | 1.04254 | 44864 ft | 507 kts | 183° |
| 2026-05-05 09:21 | 46.66477 | 1.03961 | 44860 ft | 507 kts | 183° |
| 2026-05-05 09:21 | 46.59428 | 1.03659 | 44860 ft | 507 kts | 183° |
| 2026-05-05 09:22 | 46.52377 | 1.03490 | 44850 ft | 507 kts | 178° |
| 2026-05-05 09:22 | 46.45432 | 1.05328 | 44884 ft | 510 kts | 167° |
| 2026-05-05 09:23 | 46.38544 | 1.07762 | 44889 ft | 509 kts | 169° |
| 2026-05-05 09:23 | 46.31639 | 1.09967 | 44888 ft | 507 kts | 168° |
| 2026-05-05 09:24 | 46.24767 | 1.12320 | 44891 ft | 507 kts | 169° |
| 2026-05-05 09:24 | 46.17882 | 1.14559 | 44896 ft | 507 kts | 169° |
| 2026-05-05 09:25 | 46.11006 | 1.16864 | 44897 ft | 508 kts | 169° |
| 2026-05-05 09:25 | 46.04119 | 1.19118 | 44894 ft | 507 kts | 169° |
| 2026-05-05 09:26 | 45.97244 | 1.21393 | 44903 ft | 507 kts | 169° |
| 2026-05-05 09:26 | 45.90367 | 1.23644 | 44908 ft | 507 kts | 169° |
| 2026-05-05 09:27 | 45.83487 | 1.25902 | 44908 ft | 507 kts | 169° |
| 2026-05-05 09:27 | 45.76605 | 1.28148 | 44908 ft | 507 kts | 169° |
| 2026-05-05 09:28 | 45.69775 | 1.30375 | 44900 ft | 507 kts | 169° |
| 2026-05-05 09:28 | 45.62900 | 1.32609 | 44901 ft | 507 kts | 169° |
| 2026-05-05 09:29 | 45.56025 | 1.34839 | 44897 ft | 507 kts | 169° |
| 2026-05-05 09:29 | 45.49135 | 1.37068 | 44913 ft | 508 kts | 169° |
| 2026-05-05 09:30 | 45.42242 | 1.39291 | 44918 ft | 508 kts | 169° |
| 2026-05-05 09:30 | 45.35348 | 1.41511 | 44920 ft | 509 kts | 169° |
| 2026-05-05 09:31 | 45.28437 | 1.43728 | 44932 ft | 509 kts | 169° |
| 2026-05-05 09:31 | 45.21524 | 1.45943 | 44934 ft | 509 kts | 169° |
| 2026-05-05 09:32 | 45.14605 | 1.48152 | 44934 ft | 511 kts | 169° |
| 2026-05-05 09:32 | 45.07668 | 1.50362 | 44933 ft | 511 kts | 169° |
| 2026-05-05 09:33 | 45.00729 | 1.52568 | 44933 ft | 511 kts | 169° |
| 2026-05-05 09:33 | 44.93792 | 1.54768 | 44934 ft | 512 kts | 169° |
| 2026-05-05 09:34 | 44.86850 | 1.56962 | 44938 ft | 511 kts | 169° |
| 2026-05-05 09:34 | 44.79910 | 1.59152 | 44942 ft | 511 kts | 169° |
| 2026-05-05 09:35 | 44.72968 | 1.61336 | 44942 ft | 511 kts | 169° |
| 2026-05-05 09:35 | 44.62596 | 1.64591 | 44947 ft | 511 kts | 169° |
| 2026-05-05 09:36 | 44.55643 | 1.66766 | 44948 ft | 513 kts | 169° |
| 2026-05-05 09:36 | 44.48672 | 1.68940 | 44950 ft | 513 kts | 169° |
| 2026-05-05 09:37 | 44.41708 | 1.71108 | 44952 ft | 513 kts | 169° |
| 2026-05-05 09:37 | 44.34738 | 1.73272 | 44951 ft | 513 kts | 170° |
| 2026-05-05 09:38 | 44.27761 | 1.75310 | 44952 ft | 511 kts | 173° |
| 2026-05-05 09:38 | 44.20682 | 1.76829 | 44961 ft | 512 kts | 174° |
| 2026-05-05 09:39 | 44.13709 | 1.78395 | 44960 ft | 511 kts | 173° |
| 2026-05-05 09:39 | 44.06690 | 1.79931 | 44965 ft | 510 kts | 174° |
| 2026-05-05 09:40 | 43.99670 | 1.81479 | 44956 ft | 510 kts | 174° |
| 2026-05-05 09:40 | 43.92658 | 1.82721 | 44968 ft | 507 kts | 179° |
| 2026-05-05 09:41 | 43.85617 | 1.83343 | 44977 ft | 507 kts | 179° |
| 2026-05-05 09:41 | 43.78579 | 1.84066 | 44972 ft | 506 kts | 179° |
| 2026-05-05 09:42 | 43.71551 | 1.84723 | 44970 ft | 506 kts | 179° |
| 2026-05-05 09:42 | 43.64521 | 1.85416 | 44971 ft | 506 kts | 179° |
| 2026-05-05 09:43 | 43.57492 | 1.86087 | 44966 ft | 507 kts | 179° |
| 2026-05-05 09:43 | 43.50458 | 1.86767 | 44966 ft | 507 kts | 179° |
| 2026-05-05 09:44 | 43.43428 | 1.87441 | 44964 ft | 506 kts | 179° |
| 2026-05-05 09:44 | 43.36381 | 1.88116 | 44959 ft | 509 kts | 179° |
| 2026-05-05 09:45 | 43.29315 | 1.88792 | 44956 ft | 509 kts | 179° |
| 2026-05-05 09:45 | 43.22286 | 1.89464 | 44958 ft | 509 kts | 179° |
| 2026-05-05 09:46 | 43.15210 | 1.90140 | 44960 ft | 510 kts | 179° |
| 2026-05-05 09:46 | 43.08118 | 1.90813 | 44956 ft | 511 kts | 179° |
| 2026-05-05 09:47 | 43.01046 | 1.91486 | 44952 ft | 509 kts | 179° |
| 2026-05-05 09:47 | 42.93988 | 1.92153 | 44955 ft | 509 kts | 179° |
| 2026-05-05 09:48 | 42.86921 | 1.92822 | 44955 ft | 509 kts | 179° |
| 2026-05-05 09:48 | 42.79858 | 1.93487 | 44952 ft | 509 kts | 179° |
| 2026-05-05 09:49 | 42.72791 | 1.94153 | 44947 ft | 509 kts | 179° |
| 2026-05-05 09:49 | 42.65745 | 1.95204 | 44928 ft | 513 kts | 171° |
| 2026-05-05 09:50 | 42.58844 | 1.97748 | 44938 ft | 514 kts | 168° |
| 2026-05-05 09:50 | 42.51920 | 2.00208 | 44938 ft | 515 kts | 169° |
| 2026-05-05 09:51 | 42.44989 | 2.02702 | 44937 ft | 516 kts | 168° |
| 2026-05-05 09:51 | 42.39236 | 2.04771 | 44931 ft | 514 kts | 169° |
| 2026-05-05 09:52 | 42.32315 | 2.07225 | 44920 ft | 514 kts | 169° |
| 2026-05-05 09:52 | 42.25398 | 2.09690 | 44925 ft | 514 kts | 169° |
| 2026-05-05 09:53 | 42.18476 | 2.12137 | 44925 ft | 514 kts | 169° |
| 2026-05-05 09:53 | 42.11568 | 2.14584 | 44934 ft | 514 kts | 169° |
| 2026-05-05 09:54 | 42.04653 | 2.17020 | 44941 ft | 514 kts | 169° |
| 2026-05-05 09:54 | 41.97741 | 2.19456 | 44941 ft | 513 kts | 169° |
| 2026-05-05 09:55 | 41.90830 | 2.21881 | 44938 ft | 514 kts | 169° |
| 2026-05-05 09:55 | 41.83917 | 2.24305 | 44937 ft | 513 kts | 169° |
| 2026-05-05 09:56 | 41.77079 | 2.26702 | 44438 ft | 498 kts | 169° |
| 2026-05-05 09:56 | 41.73766 | 2.27863 | 43782 ft | 485 kts | 170° |
| 2026-05-05 09:56 | 41.70537 | 2.28989 | 43160 ft | 474 kts | 171° |
| 2026-05-05 09:57 | 41.67378 | 2.30088 | 42541 ft | 464 kts | 171° |
| 2026-05-05 09:57 | 41.64293 | 2.31164 | 41942 ft | 454 kts | 171° |
| 2026-05-05 09:57 | 41.61263 | 2.32220 | 41351 ft | 447 kts | 171° |
| 2026-05-05 09:57 | 41.58260 | 2.33262 | 40766 ft | 445 kts | 172° |
| 2026-05-05 09:58 | 41.55270 | 2.34297 | 40181 ft | 444 kts | 172° |
| 2026-05-05 09:58 | 41.52285 | 2.35334 | 39599 ft | 443 kts | 172° |
| 2026-05-05 09:58 | 41.49352 | 2.36355 | 39026 ft | 440 kts | 173° |
| 2026-05-05 09:58 | 41.46394 | 2.37380 | 38416 ft | 438 kts | 173° |
| 2026-05-05 09:59 | 41.43450 | 2.38397 | 37823 ft | 436 kts | 173° |
| 2026-05-05 09:59 | 41.40506 | 2.39412 | 37243 ft | 437 kts | 173° |
| 2026-05-05 09:59 | 41.37561 | 2.40430 | 36669 ft | 438 kts | 173° |
| 2026-05-05 09:59 | 41.34607 | 2.41451 | 36090 ft | 438 kts | 173° |
| 2026-05-05 10:00 | 41.31665 | 2.42466 | 35477 ft | 437 kts | 174° |
| 2026-05-05 10:00 | 41.28722 | 2.43480 | 34935 ft | 437 kts | 174° |
| 2026-05-05 10:00 | 41.25778 | 2.44494 | 34360 ft | 436 kts | 175° |
| 2026-05-05 10:00 | 41.22840 | 2.45504 | 33767 ft | 436 kts | 175° |
| 2026-05-05 10:01 | 41.19902 | 2.46511 | 33181 ft | 438 kts | 175° |
| 2026-05-05 10:01 | 41.16948 | 2.47522 | 32598 ft | 439 kts | 175° |
| 2026-05-05 10:01 | 41.13978 | 2.48542 | 32012 ft | 441 kts | 175° |
| 2026-05-05 10:01 | 41.11002 | 2.49564 | 31428 ft | 443 kts | 175° |
| 2026-05-05 10:02 | 41.08016 | 2.50586 | 30841 ft | 443 kts | 175° |
| 2026-05-05 10:02 | 41.05015 | 2.51611 | 30250 ft | 443 kts | 175° |
| 2026-05-05 10:02 | 41.02043 | 2.52632 | 29629 ft | 439 kts | 175° |
| 2026-05-05 10:02 | 40.99101 | 2.53639 | 29049 ft | 435 kts | 175° |
| 2026-05-05 10:03 | 40.96185 | 2.54630 | 28479 ft | 431 kts | 175° |
| 2026-05-05 10:03 | 40.93296 | 2.55612 | 27911 ft | 427 kts | 175° |
| 2026-05-05 10:03 | 40.90430 | 2.56589 | 27350 ft | 423 kts | 175° |
| 2026-05-05 10:03 | 40.87594 | 2.57554 | 26760 ft | 419 kts | 174° |
| 2026-05-05 10:04 | 40.84777 | 2.58510 | 26247 ft | 416 kts | 174° |
| 2026-05-05 10:04 | 40.81982 | 2.59459 | 25699 ft | 413 kts | 174° |
| 2026-05-05 10:04 | 40.79245 | 2.60387 | 25174 ft | 410 kts | 174° |
| 2026-05-05 10:04 | 40.76495 | 2.61319 | 24626 ft | 407 kts | 174° |
| 2026-05-05 10:05 | 40.73767 | 2.62243 | 24095 ft | 403 kts | 174° |
| 2026-05-05 10:05 | 40.71058 | 2.63160 | 23566 ft | 400 kts | 173° |
| 2026-05-05 10:05 | 40.68374 | 2.64067 | 22998 ft | 397 kts | 173° |
| 2026-05-05 10:05 | 40.65701 | 2.64970 | 22475 ft | 395 kts | 173° |
| 2026-05-05 10:06 | 40.63050 | 2.65864 | 21953 ft | 393 kts | 173° |
| 2026-05-05 10:06 | 40.60409 | 2.66755 | 21436 ft | 390 kts | 173° |
| 2026-05-05 10:06 | 40.57785 | 2.67638 | 20917 ft | 389 kts | 173° |
| 2026-05-05 10:06 | 40.55167 | 2.68519 | 20411 ft | 387 kts | 172° |
| 2026-05-05 10:07 | 40.52566 | 2.69396 | 19907 ft | 385 kts | 172° |
| 2026-05-05 10:07 | 40.49996 | 2.70361 | 19367 ft | 388 kts | 166° |
| 2026-05-05 10:07 | 40.47581 | 2.72002 | 18885 ft | 393 kts | 157° |
| 2026-05-05 10:07 | 40.45211 | 2.73756 | 18372 ft | 389 kts | 157° |
| 2026-05-05 10:08 | 40.42850 | 2.75459 | 17828 ft | 386 kts | 158° |
| 2026-05-05 10:08 | 40.40504 | 2.77139 | 17320 ft | 383 kts | 158° |
| 2026-05-05 10:08 | 40.38183 | 2.78822 | 16817 ft | 379 kts | 157° |
| 2026-05-05 10:08 | 40.35887 | 2.80493 | 16317 ft | 376 kts | 157° |
| 2026-05-05 10:09 | 40.33603 | 2.82141 | 15813 ft | 373 kts | 157° |
| 2026-05-05 10:09 | 40.31399 | 2.83737 | 15338 ft | 350 kts | 156° |
| 2026-05-05 10:09 | 40.29333 | 2.85239 | 14888 ft | 330 kts | 157° |
| 2026-05-05 10:09 | 40.27378 | 2.86647 | 14465 ft | 313 kts | 157° |
| 2026-05-05 10:10 | 40.25496 | 2.87994 | 14066 ft | 305 kts | 157° |
| 2026-05-05 10:10 | 40.23652 | 2.89318 | 13662 ft | 300 kts | 157° |
| 2026-05-05 10:10 | 40.21835 | 2.90627 | 13240 ft | 297 kts | 156° |
| 2026-05-05 10:10 | 40.20021 | 2.91931 | 12848 ft | 299 kts | 156° |
| 2026-05-05 10:11 | 40.18203 | 2.93237 | 12459 ft | 297 kts | 156° |
| 2026-05-05 10:11 | 40.16399 | 2.94535 | 12071 ft | 295 kts | 156° |
| 2026-05-05 10:11 | 40.14609 | 2.95821 | 11683 ft | 293 kts | 156° |
| 2026-05-05 10:11 | 40.12831 | 2.97096 | 11299 ft | 291 kts | 155° |
| 2026-05-05 10:12 | 40.11063 | 2.98363 | 10913 ft | 289 kts | 155° |
| 2026-05-05 10:12 | 40.09308 | 2.99622 | 10536 ft | 287 kts | 155° |
| 2026-05-05 10:12 | 40.07565 | 3.00870 | 10158 ft | 285 kts | 155° |
| 2026-05-05 10:12 | 40.05833 | 3.02111 | 9781 ft | 283 kts | 154° |
| 2026-05-05 10:13 | 40.04112 | 3.03342 | 9380 ft | 281 kts | 154° |
| 2026-05-05 10:13 | 40.02399 | 3.04566 | 9012 ft | 281 kts | 154° |
| 2026-05-05 10:13 | 40.00710 | 3.05774 | 8641 ft | 279 kts | 154° |
| 2026-05-05 10:13 | 39.99020 | 3.06982 | 8279 ft | 276 kts | 154° |
| 2026-05-05 10:14 | 39.97341 | 3.08180 | 7915 ft | 275 kts | 154° |
| 2026-05-05 10:14 | 39.95666 | 3.09375 | 7555 ft | 274 kts | 154° |
| 2026-05-05 10:14 | 39.93996 | 3.10562 | 7205 ft | 272 kts | 154° |
| 2026-05-05 10:14 | 39.92237 | 3.11287 | 6908 ft | 258 kts | 178° |
| 2026-05-05 10:15 | 39.90440 | 3.11180 | 6960 ft | 266 kts | 187° |
| 2026-05-05 10:15 | 39.88610 | 3.10950 | 6832 ft | 265 kts | 187° |
| 2026-05-05 10:15 | 39.86769 | 3.10714 | 6627 ft | 266 kts | 187° |
| 2026-05-05 10:15 | 39.84929 | 3.10486 | 6400 ft | 266 kts | 187° |
| 2026-05-05 10:16 | 39.83088 | 3.10260 | 6134 ft | 264 kts | 187° |
| 2026-05-05 10:16 | 39.81264 | 3.10035 | 5914 ft | 264 kts | 187° |
| 2026-05-05 10:16 | 39.79440 | 3.09809 | 5675 ft | 263 kts | 187° |
| 2026-05-05 10:16 | 39.77624 | 3.09584 | 5442 ft | 261 kts | 187° |
| 2026-05-05 10:17 | 39.75823 | 3.09361 | 5212 ft | 259 kts | 187° |
| 2026-05-05 10:17 | 39.74048 | 3.09143 | 4983 ft | 256 kts | 187° |
| 2026-05-05 10:17 | 39.72290 | 3.08862 | 4740 ft | 254 kts | 193° |
| 2026-05-05 10:17 | 39.70732 | 3.07825 | 4458 ft | 253 kts | 219° |
| 2026-05-05 10:18 | 39.69596 | 3.06082 | 4276 ft | 255 kts | 234° |
| 2026-05-05 10:18 | 39.68684 | 3.04121 | 4095 ft | 253 kts | 238° |
| 2026-05-05 10:18 | 39.67774 | 3.02161 | 3884 ft | 257 kts | 237° |
| 2026-05-05 10:18 | 39.66851 | 3.00198 | 3658 ft | 253 kts | 237° |
| 2026-05-05 10:19 | 39.65928 | 2.98241 | 3419 ft | 256 kts | 237° |
| 2026-05-05 10:19 | 39.65005 | 2.96283 | 3192 ft | 252 kts | 237° |
| 2026-05-05 10:19 | 39.64093 | 2.94346 | 2967 ft | 250 kts | 237° |
| 2026-05-05 10:19 | 39.63196 | 2.92442 | 2747 ft | 249 kts | 237° |
| 2026-05-05 10:20 | 39.62364 | 2.90669 | 2550 ft | 210 kts | 236° |
| 2026-05-05 10:20 | 39.61651 | 2.89144 | 2304 ft | 200 kts | 236° |
| 2026-05-05 10:20 | 39.60946 | 2.87646 | 2042 ft | 187 kts | 236° |
| 2026-05-05 10:20 | 39.60303 | 2.86279 | 1793 ft | 166 kts | 236° |
| 2026-05-05 10:21 | 39.59724 | 2.85045 | 1582 ft | 159 kts | 237° |
| 2026-05-05 10:21 | 39.59164 | 2.83855 | 1383 ft | 154 kts | 237° |
| 2026-05-05 10:21 | 39.58601 | 2.82658 | 1188 ft | 151 kts | 236° |
| 2026-05-05 10:21 | 39.58109 | 2.81612 | 989 ft | 122 kts | 236° |
| 2026-05-05 10:22 | 39.57667 | 2.80672 | 837 ft | 116 kts | 234° |
| 2026-05-05 10:22 | 39.57258 | 2.79801 | 698 ft | 118 kts | 236° |
| 2026-05-05 10:22 | 39.56826 | 2.78886 | 541 ft | 118 kts | 236° |
| 2026-05-05 10:22 | 39.56413 | 2.78016 | 397 ft | 115 kts | 236° |
| 2026-05-05 10:23 | 39.55984 | 2.77101 | 238 ft | 120 kts | 239° |
| 2026-05-05 10:23 | 39.55558 | 2.76200 | 63 ft | 115 kts | 238° |
| 2026-05-05 10:23 | 39.55178 | 2.75393 | 27 ft | 85 kts | 239° |
| 2026-05-05 10:23 | 39.54908 | 2.74828 | 27 ft | 68 kts | 240° |
| 2026-05-05 10:24 | 39.54679 | 2.74337 | 27 ft | 59 kts | 238° |
| 2026-05-05 10:24 | 39.54482 | 2.73923 | 27 ft | 48 kts | 239° |
| 2026-05-05 10:24 | 39.54322 | 2.73582 | 27 ft | 41 kts | 239° |
| 2026-05-05 10:24 | 39.54187 | 2.73299 | 27 ft | 33 kts | 238° |
| 2026-05-05 10:25 | 39.54152 | 2.73125 | 27 ft | 15 kts | 275° |
| 2026-05-05 10:25 | 39.54157 | 2.72991 | 27 ft | 15 kts | 273° |
| 2026-05-05 10:25 | 39.54207 | 2.72905 | 27 ft | 10 kts | 311° |
| 2026-05-05 10:25 | 39.54246 | 2.72843 | 27 ft | 8 kts | 333° |
| 2026-05-05 10:26 | 39.54268 | 2.72822 | 27 ft | 2 kts | 268° |
| 2026-05-05 10:26 | 39.54236 | 2.72800 | 27 ft | 6 kts | 196° |
| 2026-05-05 10:26 | 39.54213 | 2.72790 | 27 ft | 0 kts | 199° |